sensor_id;sensor_type;location;lat;lon;timestamp;temperature;humidity
7598;DHT22;3840;59.32098800;18.06423600;2023-05-19T00:01:07;8.30;99.90
7598;DHT22;3840;59.32098800;18.06423600;2023-05-19T00:03:36;8.20;99.90
7598;DHT22;3840;59.32098800;18.06423600;2023-05-19T00:06:06;8.20;99.90
7598;DHT22;3840;59.32098800;18.06423600;2023-05-19T00:08:37;8.10;99.90
7598;DHT22;3840;59.32098800;18.06423600;2023-05-19T00:11:03;8.10;99.90
7598;DHT22;3840;59.32098800;18.06423600;2023-05-19T00:13:29;8.10;99.90
7598;DHT22;3840;59.32098800;18.06423600;2023-05-19T00:15:55;8.10;99.90
7598;DHT22;3840;59.32098800;18.06423600;2023-05-19T00:18:21;8.10;99.90
7598;DHT22;3840;59.32098800;18.06423600;2023-05-19T00:20:47;8.10;99.90
7598;DHT22;3840;59.32098800;18.06423600;2023-05-19T00:23:13;8.10;99.90
7598;DHT22;3840;59.32098800;18.06423600;2023-05-19T00:25:39;8.20;99.90
7598;DHT22;3840;59.32098800;18.06423600;2023-05-19T00:28:04;8.10;99.90
7598;DHT22;3840;59.32098800;18.06423600;2023-05-19T00:30:31;8.10;99.90
7598;DHT22;3840;59.32098800;18.06423600;2023-05-19T00:32:57;8.10;99.90
7598;DHT22;3840;59.32098800;18.06423600;2023-05-19T00:35:23;8.10;99.90
7598;DHT22;3840;59.32098800;18.06423600;2023-05-19T00:37:49;8.20;99.90
7598;DHT22;3840;59.32098800;18.06423600;2023-05-19T00:40:15;8.20;99.90
7598;DHT22;3840;59.32098800;18.06423600;2023-05-19T00:42:41;8.20;99.90
7598;DHT22;3840;59.32098800;18.06423600;2023-05-19T00:45:07;8.20;99.90
7598;DHT22;3840;59.32098800;18.06423600;2023-05-19T00:47:33;8.20;99.90
7598;DHT22;3840;59.32098800;18.06423600;2023-05-19T00:49:59;8.20;99.90
7598;DHT22;3840;59.32098800;18.06423600;2023-05-19T00:52:25;8.20;99.90
7598;DHT22;3840;59.32098800;18.06423600;2023-05-19T00:54:52;8.30;99.90
7598;DHT22;3840;59.32098800;18.06423600;2023-05-19T00:57:19;8.30;99.90
7598;DHT22;3840;59.32098800;18.06423600;2023-05-19T00:59:46;8.30;99.90
7598;DHT22;3840;59.32098800;18.06423600;2023-05-19T01:02:12;8.20;99.90
7598;DHT22;3840;59.32098800;18.06423600;2023-05-19T01:04:39;8.10;99.90
7598;DHT22;3840;59.32098800;18.06423600;2023-05-19T01:07:06;8.10;99.90
7598;DHT22;3840;59.32098800;18.06423600;2023-05-19T01:09:32;8.00;99.90
7598;DHT22;3840;59.32098800;18.06423600;2023-05-19T01:11:59;8.00;99.90
7598;DHT22;3840;59.32098800;18.06423600;2023-05-19T01:14:27;8.00;99.90
7598;DHT22;3840;59.32098800;18.06423600;2023-05-19T01:17:00;8.00;99.90
7598;DHT22;3840;59.32098800;18.06423600;2023-05-19T01:30:42;8.00;99.90
7598;DHT22;3840;59.32098800;18.06423600;2023-05-19T01:33:10;7.90;99.90
7598;DHT22;3840;59.32098800;18.06423600;2023-05-19T01:35:39;7.90;99.90
7598;DHT22;3840;59.32098800;18.06423600;2023-05-19T01:38:08;7.80;99.90
7598;DHT22;3840;59.32098800;18.06423600;2023-05-19T01:40:35;7.80;99.90
7598;DHT22;3840;59.32098800;18.06423600;2023-05-19T01:43:02;7.80;99.90
7598;DHT22;3840;59.32098800;18.06423600;2023-05-19T01:45:30;7.80;99.90
7598;DHT22;3840;59.32098800;18.06423600;2023-05-19T01:47:59;7.80;99.90
7598;DHT22;3840;59.32098800;18.06423600;2023-05-19T01:50:26;7.80;99.90
7598;DHT22;3840;59.32098800;18.06423600;2023-05-19T01:52:53;7.80;99.90
7598;DHT22;3840;59.32098800;18.06423600;2023-05-19T01:55:19;7.80;99.90
7598;DHT22;3840;59.32098800;18.06423600;2023-05-19T02:00:50;7.80;99.90
7598;DHT22;3840;59.32098800;18.06423600;2023-05-19T02:03:36;7.90;99.90
7598;DHT22;3840;59.32098800;18.06423600;2023-05-19T02:08:57;8.00;99.90
7598;DHT22;3840;59.32098800;18.06423600;2023-05-19T02:11:30;7.90;99.90
7598;DHT22;3840;59.32098800;18.06423600;2023-05-19T02:14:02;7.90;99.90
7598;DHT22;3840;59.32098800;18.06423600;2023-05-19T02:16:29;7.80;99.90
7598;DHT22;3840;59.32098800;18.06423600;2023-05-19T02:18:55;7.90;99.90
7598;DHT22;3840;59.32098800;18.06423600;2023-05-19T02:21:21;7.90;99.90
7598;DHT22;3840;59.32098800;18.06423600;2023-05-19T02:23:47;7.90;99.90
7598;DHT22;3840;59.32098800;18.06423600;2023-05-19T02:26:13;7.90;99.90
7598;DHT22;3840;59.32098800;18.06423600;2023-05-19T02:28:38;7.90;99.90
7598;DHT22;3840;59.32098800;18.06423600;2023-05-19T02:31:04;7.90;99.90
7598;DHT22;3840;59.32098800;18.06423600;2023-05-19T02:33:33;7.90;99.90
7598;DHT22;3840;59.32098800;18.06423600;2023-05-19T02:35:59;8.10;99.90
7598;DHT22;3840;59.32098800;18.06423600;2023-05-19T02:38:25;8.30;99.90
7598;DHT22;3840;59.32098800;18.06423600;2023-05-19T02:40:51;8.80;99.90
7598;DHT22;3840;59.32098800;18.06423600;2023-05-19T02:43:18;9.30;99.90
7598;DHT22;3840;59.32098800;18.06423600;2023-05-19T02:45:44;9.70;99.90
7598;DHT22;3840;59.32098800;18.06423600;2023-05-19T02:48:09;10.10;99.90
7598;DHT22;3840;59.32098800;18.06423600;2023-05-19T02:50:35;10.30;99.90
7598;DHT22;3840;59.32098800;18.06423600;2023-05-19T02:53:01;10.60;99.90
7598;DHT22;3840;59.32098800;18.06423600;2023-05-19T02:55:27;11.00;99.90
7598;DHT22;3840;59.32098800;18.06423600;2023-05-19T02:57:53;11.40;99.90
7598;DHT22;3840;59.32098800;18.06423600;2023-05-19T03:00:18;11.70;99.90
7598;DHT22;3840;59.32098800;18.06423600;2023-05-19T03:02:44;12.40;99.90
7598;DHT22;3840;59.32098800;18.06423600;2023-05-19T03:05:10;12.60;99.90
7598;DHT22;3840;59.32098800;18.06423600;2023-05-19T03:07:36;12.40;99.90
7598;DHT22;3840;59.32098800;18.06423600;2023-05-19T03:10:02;12.70;99.90
7598;DHT22;3840;59.32098800;18.06423600;2023-05-19T03:12:28;12.90;99.90
7598;DHT22;3840;59.32098800;18.06423600;2023-05-19T03:14:54;12.90;99.90
7598;DHT22;3840;59.32098800;18.06423600;2023-05-19T03:17:20;13.30;99.90
7598;DHT22;3840;59.32098800;18.06423600;2023-05-19T03:19:45;13.10;99.90
7598;DHT22;3840;59.32098800;18.06423600;2023-05-19T03:22:11;12.90;99.90
7598;DHT22;3840;59.32098800;18.06423600;2023-05-19T03:24:37;13.50;99.90
7598;DHT22;3840;59.32098800;18.06423600;2023-05-19T03:27:03;13.30;99.90
7598;DHT22;3840;59.32098800;18.06423600;2023-05-19T03:29:32;13.40;99.90
7598;DHT22;3840;59.32098800;18.06423600;2023-05-19T03:31:58;14.40;99.90
7598;DHT22;3840;59.32098800;18.06423600;2023-05-19T03:34:24;14.90;99.90
7598;DHT22;3840;59.32098800;18.06423600;2023-05-19T03:36:49;15.10;99.90
7598;DHT22;3840;59.32098800;18.06423600;2023-05-19T03:39:15;15.40;99.90
7598;DHT22;3840;59.32098800;18.06423600;2023-05-19T03:41:41;15.70;99.90
7598;DHT22;3840;59.32098800;18.06423600;2023-05-19T03:44:07;15.50;99.90
7598;DHT22;3840;59.32098800;18.06423600;2023-05-19T03:46:32;15.70;99.90
7598;DHT22;3840;59.32098800;18.06423600;2023-05-19T03:48:58;15.80;99.90
7598;DHT22;3840;59.32098800;18.06423600;2023-05-19T03:51:24;15.10;99.90
7598;DHT22;3840;59.32098800;18.06423600;2023-05-19T03:53:50;15.30;99.90
7598;DHT22;3840;59.32098800;18.06423600;2023-05-19T03:56:16;15.70;99.90
7598;DHT22;3840;59.32098800;18.06423600;2023-05-19T03:58:42;15.80;99.90
7598;DHT22;3840;59.32098800;18.06423600;2023-05-19T04:01:09;16.30;99.90
7598;DHT22;3840;59.32098800;18.06423600;2023-05-19T04:03:35;15.80;99.90
7598;DHT22;3840;59.32098800;18.06423600;2023-05-19T04:06:01;16.00;99.90
7598;DHT22;3840;59.32098800;18.06423600;2023-05-19T04:08:27;16.00;99.90
7598;DHT22;3840;59.32098800;18.06423600;2023-05-19T04:10:53;16.00;99.90
7598;DHT22;3840;59.32098800;18.06423600;2023-05-19T04:13:19;16.20;99.90
7598;DHT22;3840;59.32098800;18.06423600;2023-05-19T04:15:45;16.80;99.90
7598;DHT22;3840;59.32098800;18.06423600;2023-05-19T04:18:11;16.20;99.90
7598;DHT22;3840;59.32098800;18.06423600;2023-05-19T04:20:36;17.40;99.90
7598;DHT22;3840;59.32098800;18.06423600;2023-05-19T04:23:02;16.80;99.90
7598;DHT22;3840;59.32098800;18.06423600;2023-05-19T04:25:28;16.30;99.90
7598;DHT22;3840;59.32098800;18.06423600;2023-05-19T04:27:54;16.50;99.90
7598;DHT22;3840;59.32098800;18.06423600;2023-05-19T04:30:25;16.90;99.90
7598;DHT22;3840;59.32098800;18.06423600;2023-05-19T04:32:50;16.50;99.90
7598;DHT22;3840;59.32098800;18.06423600;2023-05-19T04:35:16;17.10;99.90
7598;DHT22;3840;59.32098800;18.06423600;2023-05-19T04:37:45;17.90;99.90
7598;DHT22;3840;59.32098800;18.06423600;2023-05-19T04:40:12;18.70;99.90
7598;DHT22;3840;59.32098800;18.06423600;2023-05-19T04:42:37;18.50;99.90
7598;DHT22;3840;59.32098800;18.06423600;2023-05-19T04:45:07;17.70;99.90
7598;DHT22;3840;59.32098800;18.06423600;2023-05-19T04:47:34;17.80;99.90
7598;DHT22;3840;59.32098800;18.06423600;2023-05-19T04:50:04;18.00;99.90
7598;DHT22;3840;59.32098800;18.06423600;2023-05-19T04:52:29;17.20;99.90
7598;DHT22;3840;59.32098800;18.06423600;2023-05-19T04:54:55;15.60;99.90
7598;DHT22;3840;59.32098800;18.06423600;2023-05-19T04:57:21;14.50;99.90
7598;DHT22;3840;59.32098800;18.06423600;2023-05-19T04:59:47;14.00;99.90
7598;DHT22;3840;59.32098800;18.06423600;2023-05-19T05:02:13;13.60;99.90
7598;DHT22;3840;59.32098800;18.06423600;2023-05-19T05:04:39;13.20;99.90
7598;DHT22;3840;59.32098800;18.06423600;2023-05-19T05:07:08;13.00;99.90
7598;DHT22;3840;59.32098800;18.06423600;2023-05-19T05:09:34;13.00;99.90
7598;DHT22;3840;59.32098800;18.06423600;2023-05-19T05:12:00;13.00;99.90
7598;DHT22;3840;59.32098800;18.06423600;2023-05-19T05:14:28;12.90;99.90
7598;DHT22;3840;59.32098800;18.06423600;2023-05-19T05:16:54;12.80;99.90
7598;DHT22;3840;59.32098800;18.06423600;2023-05-19T05:19:20;12.90;99.90
7598;DHT22;3840;59.32098800;18.06423600;2023-05-19T05:21:46;12.90;99.90
7598;DHT22;3840;59.32098800;18.06423600;2023-05-19T05:24:13;12.90;99.90
7598;DHT22;3840;59.32098800;18.06423600;2023-05-19T05:26:39;13.10;99.90
7598;DHT22;3840;59.32098800;18.06423600;2023-05-19T05:29:04;13.20;99.90
7598;DHT22;3840;59.32098800;18.06423600;2023-05-19T05:31:31;13.10;99.90
7598;DHT22;3840;59.32098800;18.06423600;2023-05-19T05:33:57;13.20;99.90
7598;DHT22;3840;59.32098800;18.06423600;2023-05-19T05:36:22;13.30;99.90
7598;DHT22;3840;59.32098800;18.06423600;2023-05-19T05:38:49;13.30;99.90
7598;DHT22;3840;59.32098800;18.06423600;2023-05-19T05:41:16;13.30;99.90
7598;DHT22;3840;59.32098800;18.06423600;2023-05-19T05:43:41;13.50;99.90
7598;DHT22;3840;59.32098800;18.06423600;2023-05-19T05:46:07;13.40;99.90
7598;DHT22;3840;59.32098800;18.06423600;2023-05-19T05:48:33;13.50;99.90
7598;DHT22;3840;59.32098800;18.06423600;2023-05-19T05:50:59;13.60;99.90
7598;DHT22;3840;59.32098800;18.06423600;2023-05-19T05:53:29;13.70;99.90
7598;DHT22;3840;59.32098800;18.06423600;2023-05-19T05:55:55;13.70;99.90
7598;DHT22;3840;59.32098800;18.06423600;2023-05-19T05:58:21;13.70;99.90
7598;DHT22;3840;59.32098800;18.06423600;2023-05-19T06:00:46;13.70;99.90
7598;DHT22;3840;59.32098800;18.06423600;2023-05-19T06:03:13;13.90;99.90
7598;DHT22;3840;59.32098800;18.06423600;2023-05-19T06:05:41;13.90;99.90
7598;DHT22;3840;59.32098800;18.06423600;2023-05-19T06:08:06;14.00;99.90
7598;DHT22;3840;59.32098800;18.06423600;2023-05-19T06:10:32;14.10;99.90
7598;DHT22;3840;59.32098800;18.06423600;2023-05-19T06:12:59;14.10;99.90
7598;DHT22;3840;59.32098800;18.06423600;2023-05-19T06:15:25;14.40;99.90
7598;DHT22;3840;59.32098800;18.06423600;2023-05-19T06:17:51;14.50;99.90
7598;DHT22;3840;59.32098800;18.06423600;2023-05-19T06:20:17;14.50;99.90
7598;DHT22;3840;59.32098800;18.06423600;2023-05-19T06:22:42;14.60;99.90
7598;DHT22;3840;59.32098800;18.06423600;2023-05-19T06:25:08;14.70;99.90
7598;DHT22;3840;59.32098800;18.06423600;2023-05-19T06:27:34;14.60;99.90
7598;DHT22;3840;59.32098800;18.06423600;2023-05-19T06:30:00;14.80;99.90
7598;DHT22;3840;59.32098800;18.06423600;2023-05-19T06:32:26;14.90;99.90
7598;DHT22;3840;59.32098800;18.06423600;2023-05-19T06:34:53;14.90;99.90
7598;DHT22;3840;59.32098800;18.06423600;2023-05-19T06:37:23;15.10;99.90
7598;DHT22;3840;59.32098800;18.06423600;2023-05-19T06:39:52;15.10;99.90
7598;DHT22;3840;59.32098800;18.06423600;2023-05-19T06:42:19;15.20;99.90
7598;DHT22;3840;59.32098800;18.06423600;2023-05-19T06:44:52;15.10;99.90
7598;DHT22;3840;59.32098800;18.06423600;2023-05-19T06:47:18;15.10;99.90
7598;DHT22;3840;59.32098800;18.06423600;2023-05-19T06:49:44;15.40;99.90
7598;DHT22;3840;59.32098800;18.06423600;2023-05-19T06:52:11;15.50;99.90
7598;DHT22;3840;59.32098800;18.06423600;2023-05-19T06:54:36;15.60;99.90
7598;DHT22;3840;59.32098800;18.06423600;2023-05-19T06:57:02;15.60;99.90
7598;DHT22;3840;59.32098800;18.06423600;2023-05-19T06:59:28;15.60;99.90
7598;DHT22;3840;59.32098800;18.06423600;2023-05-19T07:01:55;15.70;99.90
7598;DHT22;3840;59.32098800;18.06423600;2023-05-19T07:04:21;15.70;99.90
7598;DHT22;3840;59.32098800;18.06423600;2023-05-19T07:06:46;15.70;99.90
7598;DHT22;3840;59.32098800;18.06423600;2023-05-19T07:09:14;15.70;99.90
7598;DHT22;3840;59.32098800;18.06423600;2023-05-19T07:11:40;15.70;99.90
7598;DHT22;3840;59.32098800;18.06423600;2023-05-19T07:14:06;15.80;99.90
7598;DHT22;3840;59.32098800;18.06423600;2023-05-19T07:16:31;15.80;99.90
7598;DHT22;3840;59.32098800;18.06423600;2023-05-19T07:18:57;15.80;99.90
7598;DHT22;3840;59.32098800;18.06423600;2023-05-19T07:21:23;15.80;99.90
7598;DHT22;3840;59.32098800;18.06423600;2023-05-19T07:23:48;15.70;99.90
7598;DHT22;3840;59.32098800;18.06423600;2023-05-19T07:26:14;15.60;99.90
7598;DHT22;3840;59.32098800;18.06423600;2023-05-19T07:28:40;15.70;99.90
7598;DHT22;3840;59.32098800;18.06423600;2023-05-19T07:31:08;15.80;99.90
7598;DHT22;3840;59.32098800;18.06423600;2023-05-19T07:33:33;15.70;99.90
7598;DHT22;3840;59.32098800;18.06423600;2023-05-19T07:35:59;15.70;99.90
7598;DHT22;3840;59.32098800;18.06423600;2023-05-19T07:38:25;15.70;99.90
7598;DHT22;3840;59.32098800;18.06423600;2023-05-19T07:40:51;15.80;99.90
7598;DHT22;3840;59.32098800;18.06423600;2023-05-19T07:43:17;15.90;99.90
7598;DHT22;3840;59.32098800;18.06423600;2023-05-19T07:45:42;16.00;99.90
7598;DHT22;3840;59.32098800;18.06423600;2023-05-19T07:48:08;16.00;99.90
7598;DHT22;3840;59.32098800;18.06423600;2023-05-19T07:50:34;16.00;99.90
7598;DHT22;3840;59.32098800;18.06423600;2023-05-19T07:53:00;15.90;99.90
7598;DHT22;3840;59.32098800;18.06423600;2023-05-19T07:55:25;16.00;99.90
7598;DHT22;3840;59.32098800;18.06423600;2023-05-19T07:57:51;16.10;99.90
7598;DHT22;3840;59.32098800;18.06423600;2023-05-19T08:00:17;16.10;99.90
7598;DHT22;3840;59.32098800;18.06423600;2023-05-19T08:02:43;16.10;99.90
7598;DHT22;3840;59.32098800;18.06423600;2023-05-19T08:05:09;16.00;99.90
7598;DHT22;3840;59.32098800;18.06423600;2023-05-19T08:07:36;16.00;99.90
7598;DHT22;3840;59.32098800;18.06423600;2023-05-19T08:10:02;16.00;99.90
7598;DHT22;3840;59.32098800;18.06423600;2023-05-19T08:12:28;16.00;99.90
7598;DHT22;3840;59.32098800;18.06423600;2023-05-19T08:14:54;16.00;99.90
7598;DHT22;3840;59.32098800;18.06423600;2023-05-19T08:17:19;15.90;99.90
7598;DHT22;3840;59.32098800;18.06423600;2023-05-19T08:19:46;15.90;99.90
7598;DHT22;3840;59.32098800;18.06423600;2023-05-19T08:22:12;15.90;99.90
7598;DHT22;3840;59.32098800;18.06423600;2023-05-19T08:24:37;16.00;99.90
7598;DHT22;3840;59.32098800;18.06423600;2023-05-19T08:27:03;16.10;99.90
7598;DHT22;3840;59.32098800;18.06423600;2023-05-19T08:29:29;16.10;99.90
7598;DHT22;3840;59.32098800;18.06423600;2023-05-19T08:31:56;16.10;99.90
7598;DHT22;3840;59.32098800;18.06423600;2023-05-19T08:34:22;16.10;99.90
7598;DHT22;3840;59.32098800;18.06423600;2023-05-19T08:36:50;16.20;99.90
7598;DHT22;3840;59.32098800;18.06423600;2023-05-19T08:39:15;16.20;99.90
7598;DHT22;3840;59.32098800;18.06423600;2023-05-19T08:41:43;16.20;99.90
7598;DHT22;3840;59.32098800;18.06423600;2023-05-19T08:44:09;16.20;99.90
7598;DHT22;3840;59.32098800;18.06423600;2023-05-19T08:46:35;16.20;99.90
7598;DHT22;3840;59.32098800;18.06423600;2023-05-19T08:49:04;16.30;99.90
7598;DHT22;3840;59.32098800;18.06423600;2023-05-19T08:51:40;16.30;99.90
7598;DHT22;3840;59.32098800;18.06423600;2023-05-19T08:54:16;16.40;99.90
7598;DHT22;3840;59.32098800;18.06423600;2023-05-19T08:56:43;16.40;99.90
7598;DHT22;3840;59.32098800;18.06423600;2023-05-19T08:59:13;16.50;99.90
7598;DHT22;3840;59.32098800;18.06423600;2023-05-19T09:01:43;16.50;99.90
7598;DHT22;3840;59.32098800;18.06423600;2023-05-19T09:04:10;16.50;99.90
7598;DHT22;3840;59.32098800;18.06423600;2023-05-19T09:06:36;16.50;99.90
7598;DHT22;3840;59.32098800;18.06423600;2023-05-19T09:09:05;16.50;99.90
7598;DHT22;3840;59.32098800;18.06423600;2023-05-19T09:11:32;16.40;99.90
7598;DHT22;3840;59.32098800;18.06423600;2023-05-19T09:14:00;16.40;99.90
7598;DHT22;3840;59.32098800;18.06423600;2023-05-19T09:16:25;16.40;99.90
7598;DHT22;3840;59.32098800;18.06423600;2023-05-19T09:18:55;16.50;99.90
7598;DHT22;3840;59.32098800;18.06423600;2023-05-19T09:21:31;16.50;99.90
7598;DHT22;3840;59.32098800;18.06423600;2023-05-19T09:24:05;16.50;99.90
7598;DHT22;3840;59.32098800;18.06423600;2023-05-19T09:26:38;16.50;99.90
7598;DHT22;3840;59.32098800;18.06423600;2023-05-19T09:29:12;16.50;99.90
7598;DHT22;3840;59.32098800;18.06423600;2023-05-19T09:31:39;16.50;99.90
7598;DHT22;3840;59.32098800;18.06423600;2023-05-19T09:34:12;16.60;99.90
7598;DHT22;3840;59.32098800;18.06423600;2023-05-19T09:36:39;16.50;99.90
7598;DHT22;3840;59.32098800;18.06423600;2023-05-19T09:39:12;16.50;99.90
7598;DHT22;3840;59.32098800;18.06423600;2023-05-19T09:41:39;16.50;99.90
7598;DHT22;3840;59.32098800;18.06423600;2023-05-19T09:44:05;16.50;99.90
7598;DHT22;3840;59.32098800;18.06423600;2023-05-19T09:46:31;16.50;99.90
7598;DHT22;3840;59.32098800;18.06423600;2023-05-19T09:49:08;16.50;99.90
7598;DHT22;3840;59.32098800;18.06423600;2023-05-19T09:51:40;16.50;99.90
7598;DHT22;3840;59.32098800;18.06423600;2023-05-19T09:54:06;16.60;99.90
7598;DHT22;3840;59.32098800;18.06423600;2023-05-19T09:56:34;16.50;99.90
7598;DHT22;3840;59.32098800;18.06423600;2023-05-19T09:59:02;16.50;99.90
7598;DHT22;3840;59.32098800;18.06423600;2023-05-19T10:01:29;16.60;99.90
7598;DHT22;3840;59.32098800;18.06423600;2023-05-19T10:03:56;16.70;99.90
7598;DHT22;3840;59.32098800;18.06423600;2023-05-19T10:06:22;16.60;99.90
7598;DHT22;3840;59.32098800;18.06423600;2023-05-19T10:08:49;16.60;99.90
7598;DHT22;3840;59.32098800;18.06423600;2023-05-19T10:11:16;16.60;99.90
7598;DHT22;3840;59.32098800;18.06423600;2023-05-19T10:13:44;16.50;99.90
7598;DHT22;3840;59.32098800;18.06423600;2023-05-19T10:16:11;16.50;99.90
7598;DHT22;3840;59.32098800;18.06423600;2023-05-19T10:18:38;16.50;99.90
7598;DHT22;3840;59.32098800;18.06423600;2023-05-19T10:21:06;16.60;99.90
7598;DHT22;3840;59.32098800;18.06423600;2023-05-19T10:23:33;16.60;99.90
7598;DHT22;3840;59.32098800;18.06423600;2023-05-19T10:26:00;16.60;99.90
7598;DHT22;3840;59.32098800;18.06423600;2023-05-19T10:28:34;16.60;99.90
7598;DHT22;3840;59.32098800;18.06423600;2023-05-19T10:31:03;16.60;99.90
7598;DHT22;3840;59.32098800;18.06423600;2023-05-19T10:36:38;16.60;99.90
7598;DHT22;3840;59.32098800;18.06423600;2023-05-19T10:39:19;16.70;99.90
7598;DHT22;3840;59.32098800;18.06423600;2023-05-19T10:44:30;16.70;99.90
7598;DHT22;3840;59.32098800;18.06423600;2023-05-19T10:46:59;16.70;99.90
7598;DHT22;3840;59.32098800;18.06423600;2023-05-19T10:49:25;16.70;99.90
7598;DHT22;3840;59.32098800;18.06423600;2023-05-19T10:51:54;16.70;99.90
7598;DHT22;3840;59.32098800;18.06423600;2023-05-19T10:54:53;16.80;99.90
7598;DHT22;3840;59.32098800;18.06423600;2023-05-19T10:57:26;16.90;99.90
7598;DHT22;3840;59.32098800;18.06423600;2023-05-19T10:59:57;16.80;99.90
7598;DHT22;3840;59.32098800;18.06423600;2023-05-19T11:02:42;16.90;99.90
7598;DHT22;3840;59.32098800;18.06423600;2023-05-19T11:05:15;16.80;99.90
7598;DHT22;3840;59.32098800;18.06423600;2023-05-19T11:07:58;16.80;99.90
7598;DHT22;3840;59.32098800;18.06423600;2023-05-19T11:10:31;17.00;99.90
7598;DHT22;3840;59.32098800;18.06423600;2023-05-19T11:12:57;16.90;99.90
7598;DHT22;3840;59.32098800;18.06423600;2023-05-19T11:15:26;16.90;99.90
7598;DHT22;3840;59.32098800;18.06423600;2023-05-19T11:17:53;16.90;99.90
7598;DHT22;3840;59.32098800;18.06423600;2023-05-19T11:20:27;16.90;99.90
7598;DHT22;3840;59.32098800;18.06423600;2023-05-19T11:23:09;17.00;99.90
7598;DHT22;3840;59.32098800;18.06423600;2023-05-19T11:28:14;17.00;99.90
7598;DHT22;3840;59.32098800;18.06423600;2023-05-19T11:30:41;17.00;99.90
7598;DHT22;3840;59.32098800;18.06423600;2023-05-19T11:33:11;17.10;99.90
7598;DHT22;3840;59.32098800;18.06423600;2023-05-19T11:35:38;17.10;99.90
7598;DHT22;3840;59.32098800;18.06423600;2023-05-19T11:38:05;17.00;99.90
7598;DHT22;3840;59.32098800;18.06423600;2023-05-19T11:40:31;17.10;99.90
7598;DHT22;3840;59.32098800;18.06423600;2023-05-19T11:42:57;17.20;99.90
7598;DHT22;3840;59.32098800;18.06423600;2023-05-19T11:45:27;17.20;99.90
7598;DHT22;3840;59.32098800;18.06423600;2023-05-19T11:47:58;17.10;99.90
7598;DHT22;3840;59.32098800;18.06423600;2023-05-19T11:50:24;17.10;99.90
7598;DHT22;3840;59.32098800;18.06423600;2023-05-19T11:52:53;17.20;99.90
7598;DHT22;3840;59.32098800;18.06423600;2023-05-19T11:55:20;17.30;99.90
7598;DHT22;3840;59.32098800;18.06423600;2023-05-19T11:57:58;17.20;99.90
7598;DHT22;3840;59.32098800;18.06423600;2023-05-19T12:00:26;17.30;99.90
7598;DHT22;3840;59.32098800;18.06423600;2023-05-19T12:02:52;17.30;99.90
7598;DHT22;3840;59.32098800;18.06423600;2023-05-19T12:05:20;17.30;99.90
7598;DHT22;3840;59.32098800;18.06423600;2023-05-19T12:07:47;17.30;99.90
7598;DHT22;3840;59.32098800;18.06423600;2023-05-19T12:10:37;17.30;99.90
7598;DHT22;3840;59.32098800;18.06423600;2023-05-19T12:13:05;17.50;99.90
7598;DHT22;3840;59.32098800;18.06423600;2023-05-19T12:15:33;17.50;99.90
7598;DHT22;3840;59.32098800;18.06423600;2023-05-19T12:18:00;17.40;99.90
7598;DHT22;3840;59.32098800;18.06423600;2023-05-19T12:20:28;17.50;99.90
7598;DHT22;3840;59.32098800;18.06423600;2023-05-19T12:22:57;17.50;99.90
7598;DHT22;3840;59.32098800;18.06423600;2023-05-19T12:25:23;17.50;99.90
7598;DHT22;3840;59.32098800;18.06423600;2023-05-19T12:27:49;17.60;99.90
7598;DHT22;3840;59.32098800;18.06423600;2023-05-19T12:30:17;17.50;99.90
7598;DHT22;3840;59.32098800;18.06423600;2023-05-19T12:32:52;17.40;99.90
7598;DHT22;3840;59.32098800;18.06423600;2023-05-19T12:35:18;17.50;99.90
7598;DHT22;3840;59.32098800;18.06423600;2023-05-19T12:37:44;17.60;99.90
7598;DHT22;3840;59.32098800;18.06423600;2023-05-19T12:40:14;17.50;99.90
7598;DHT22;3840;59.32098800;18.06423600;2023-05-19T12:42:43;17.50;99.90
7598;DHT22;3840;59.32098800;18.06423600;2023-05-19T12:45:09;17.50;99.90
7598;DHT22;3840;59.32098800;18.06423600;2023-05-19T12:47:35;17.50;99.90
7598;DHT22;3840;59.32098800;18.06423600;2023-05-19T12:50:08;17.50;99.90
7598;DHT22;3840;59.32098800;18.06423600;2023-05-19T12:55:08;17.60;99.90
7598;DHT22;3840;59.32098800;18.06423600;2023-05-19T12:57:37;17.60;99.90
7598;DHT22;3840;59.32098800;18.06423600;2023-05-19T13:03:04;17.50;99.90
7598;DHT22;3840;59.32098800;18.06423600;2023-05-19T13:05:37;17.60;99.90
7598;DHT22;3840;59.32098800;18.06423600;2023-05-19T13:08:08;17.60;99.90
7598;DHT22;3840;59.32098800;18.06423600;2023-05-19T13:10:35;17.70;99.90
7598;DHT22;3840;59.32098800;18.06423600;2023-05-19T13:13:01;17.70;99.90
7598;DHT22;3840;59.32098800;18.06423600;2023-05-19T13:15:31;17.60;99.90
7598;DHT22;3840;59.32098800;18.06423600;2023-05-19T13:17:59;17.60;99.90
7598;DHT22;3840;59.32098800;18.06423600;2023-05-19T13:20:26;17.50;99.90
7598;DHT22;3840;59.32098800;18.06423600;2023-05-19T13:22:53;17.50;99.90
7598;DHT22;3840;59.32098800;18.06423600;2023-05-19T13:25:19;17.40;99.90
7598;DHT22;3840;59.32098800;18.06423600;2023-05-19T13:27:47;17.40;99.90
7598;DHT22;3840;59.32098800;18.06423600;2023-05-19T13:30:13;17.30;99.90
7598;DHT22;3840;59.32098800;18.06423600;2023-05-19T13:32:40;17.30;99.90
7598;DHT22;3840;59.32098800;18.06423600;2023-05-19T13:35:07;17.30;99.90
7598;DHT22;3840;59.32098800;18.06423600;2023-05-19T13:37:33;17.20;99.90
7598;DHT22;3840;59.32098800;18.06423600;2023-05-19T13:39:59;17.20;99.90
7598;DHT22;3840;59.32098800;18.06423600;2023-05-19T13:42:26;17.20;99.90
7598;DHT22;3840;59.32098800;18.06423600;2023-05-19T13:44:55;17.20;99.90
7598;DHT22;3840;59.32098800;18.06423600;2023-05-19T13:47:22;17.30;99.90
7598;DHT22;3840;59.32098800;18.06423600;2023-05-19T13:49:48;17.30;99.90
7598;DHT22;3840;59.32098800;18.06423600;2023-05-19T13:52:14;17.20;99.90
7598;DHT22;3840;59.32098800;18.06423600;2023-05-19T13:54:40;17.20;99.90
7598;DHT22;3840;59.32098800;18.06423600;2023-05-19T13:57:05;17.10;99.90
7598;DHT22;3840;59.32098800;18.06423600;2023-05-19T13:59:31;17.00;99.90
7598;DHT22;3840;59.32098800;18.06423600;2023-05-19T14:01:59;17.00;99.90
7598;DHT22;3840;59.32098800;18.06423600;2023-05-19T14:04:24;16.90;99.90
7598;DHT22;3840;59.32098800;18.06423600;2023-05-19T14:06:50;16.90;99.90
7598;DHT22;3840;59.32098800;18.06423600;2023-05-19T14:09:16;16.90;99.90